createdAt,value
2023-03-29T00:00:19.183Z,13.68
2023-03-29T00:03:34.898Z,13.61
2023-03-29T00:06:08.415Z,13.63
2023-03-29T00:08:58.531Z,13.47
2023-03-29T00:11:28.271Z,13.39
2023-03-29T00:13:57.816Z,13.30
2023-03-29T00:16:30.493Z,13.37
2023-03-29T00:19:00.060Z,13.33
2023-03-29T00:21:36.086Z,13.28
2023-03-29T00:24:13.700Z,12.83
2023-03-29T00:26:42.692Z,13.05
2023-03-29T00:29:12.189Z,12.94
2023-03-29T00:32:04.432Z,13.00
2023-03-29T00:34:35.709Z,13.12
2023-03-29T00:37:10.070Z,12.99
2023-03-29T00:39:42.831Z,13.05
2023-03-29T00:42:22.055Z,13.05
2023-03-29T00:45:03.738Z,12.93
2023-03-29T00:47:58.680Z,12.78
2023-03-29T00:50:37.035Z,12.81
2023-03-29T00:53:17.327Z,12.95
2023-03-29T00:56:19.870Z,12.89
2023-03-29T00:58:58.152Z,12.75
2023-03-29T01:02:03.091Z,12.65
2023-03-29T01:04:53.465Z,12.75
2023-03-29T01:07:25.298Z,12.74
2023-03-29T01:10:12.813Z,12.58
2023-03-29T01:13:13.033Z,12.32
2023-03-29T01:15:46.414Z,12.30
2023-03-29T01:18:17.731Z,12.35
2023-03-29T01:21:10.920Z,12.44
2023-03-29T01:24:00.763Z,12.36
2023-03-29T01:26:29.753Z,12.33
2023-03-29T01:29:08.998Z,12.47
2023-03-29T01:32:24.543Z,12.33
2023-03-29T01:35:00.502Z,12.15
2023-03-29T01:37:48.870Z,12.24
2023-03-29T01:40:20.814Z,12.32
2023-03-29T01:43:19.901Z,12.25
2023-03-29T01:45:58.644Z,12.16
2023-03-29T01:48:42.164Z,12.20
2023-03-29T01:51:16.531Z,12.27
2023-03-29T01:53:51.851Z,12.07
2023-03-29T01:56:28.877Z,12.11
2023-03-29T01:59:27.606Z,12.10
2023-03-29T02:02:03.657Z,12.16
2023-03-29T02:04:38.906Z,12.03
2023-03-29T02:07:13.586Z,12.09
2023-03-29T02:09:43.780Z,11.99
2023-03-29T02:12:14.893Z,12.01
2023-03-29T02:14:48.500Z,11.85
2023-03-29T02:17:29.067Z,11.96
2023-03-29T02:20:18.429Z,11.92
2023-03-29T02:23:05.521Z,11.99
2023-03-29T02:25:38.218Z,11.88
2023-03-29T02:28:19.756Z,11.82
2023-03-29T02:31:07.867Z,11.88
2023-03-29T02:33:43.883Z,11.93
2023-03-29T02:36:32.583Z,11.95
2023-03-29T02:39:05.900Z,11.91
2023-03-29T02:41:45.688Z,11.88
2023-03-29T02:44:24.907Z,11.82
2023-03-29T02:47:02.992Z,11.91
2023-03-29T02:49:35.496Z,11.74
2023-03-29T02:52:15.577Z,11.79
2023-03-29T02:54:55.195Z,11.85
2023-03-29T02:57:30.230Z,11.79
2023-03-29T03:00:04.716Z,11.57
2023-03-29T03:02:34.704Z,11.68
2023-03-29T03:05:04.536Z,11.64
2023-03-29T03:07:37.696Z,11.58
2023-03-29T03:10:08.539Z,11.58
2023-03-29T03:12:50.372Z,11.71
2023-03-29T03:15:44.238Z,11.65
2023-03-29T03:18:16.920Z,11.68
2023-03-29T03:21:09.330Z,11.70
2023-03-29T03:23:44.602Z,11.84
2023-03-29T03:26:16.759Z,11.74
2023-03-29T03:28:49.121Z,11.36
2023-03-29T03:31:40.051Z,11.47
2023-03-29T03:34:15.315Z,11.75
2023-03-29T03:36:55.334Z,11.74
2023-03-29T03:39:24.666Z,11.72
2023-03-29T03:41:56.649Z,11.64
2023-03-29T03:44:25.778Z,11.67
2023-03-29T03:47:14.604Z,11.71
2023-03-29T03:49:46.561Z,11.78
2023-03-29T03:52:17.169Z,11.52
2023-03-29T03:54:50.888Z,11.46
2023-03-29T03:57:46.436Z,11.58
2023-03-29T04:00:20.412Z,11.65
2023-03-29T04:03:10.757Z,11.60
2023-03-29T04:05:41.183Z,11.64
2023-03-29T04:08:10.576Z,11.81
2023-03-29T04:11:01.303Z,11.59
2023-03-29T04:13:37.950Z,11.57
2023-03-29T04:16:23.166Z,11.64
2023-03-29T04:18:52.348Z,11.71
2023-03-29T04:21:23.927Z,11.62
2023-03-29T04:23:53.060Z,11.74
2023-03-29T04:26:22.975Z,11.71
2023-03-29T04:29:20.693Z,11.75
2023-03-29T04:31:58.993Z,11.55
2023-03-29T04:34:46.391Z,11.57
2023-03-29T04:37:17.257Z,11.59
2023-03-29T04:39:46.767Z,11.64
2023-03-29T04:42:15.683Z,11.67
2023-03-29T04:44:46.430Z,11.68
2023-03-29T04:47:22.211Z,11.63
2023-03-29T04:49:59.142Z,11.51
2023-03-29T04:52:44.821Z,11.62
2023-03-29T04:55:14.235Z,11.54
2023-03-29T04:57:57.017Z,11.54
2023-03-29T05:00:41.329Z,11.53
2023-03-29T05:03:15.791Z,11.53
2023-03-29T05:05:56.882Z,11.53
2023-03-29T05:08:26.299Z,11.45
2023-03-29T05:11:15.993Z,11.27
2023-03-29T05:13:46.499Z,11.25
2023-03-29T05:16:29.011Z,11.22
2023-03-29T05:19:04.424Z,11.10
2023-03-29T05:21:37.171Z,10.94
2023-03-29T05:24:13.700Z,10.58
2023-03-29T05:27:04.722Z,10.54
2023-03-29T05:29:37.163Z,10.49
2023-03-29T05:32:39.039Z,10.34
2023-03-29T05:35:12.975Z,10.52
2023-03-29T05:37:42.951Z,10.51
2023-03-29T05:40:14.204Z,10.58
2023-03-29T05:43:05.985Z,10.51
2023-03-29T05:45:40.527Z,10.51
2023-03-29T05:48:10.099Z,10.56
2023-03-29T05:50:50.060Z,10.52
2023-03-29T05:53:25.100Z,10.56
2023-03-29T05:56:07.407Z,10.49
2023-03-29T05:58:37.827Z,10.52
2023-03-29T06:01:14.254Z,10.33
2023-03-29T06:04:09.647Z,10.37
2023-03-29T06:07:05.354Z,10.39
2023-03-29T06:09:35.096Z,10.42
2023-03-29T06:12:07.980Z,10.43
2023-03-29T06:14:54.147Z,10.32
2023-03-29T06:17:44.179Z,10.21
2023-03-29T06:20:20.967Z,9.82
2023-03-29T06:22:56.740Z,9.69
2023-03-29T06:25:26.966Z,10.16
2023-03-29T06:27:59.800Z,10.23
2023-03-29T06:30:29.689Z,10.21
2023-03-29T06:33:08.219Z,10.32
2023-03-29T06:35:54.257Z,10.32
2023-03-29T06:38:29.854Z,10.29
2023-03-29T06:41:14.443Z,10.35
2023-03-29T06:44:16.383Z,10.25
2023-03-29T06:47:05.217Z,10.20
2023-03-29T06:49:45.482Z,10.19
2023-03-29T06:52:29.937Z,10.08
2023-03-29T06:55:09.749Z,10.18
2023-03-29T06:57:44.242Z,10.11
2023-03-29T07:00:39.997Z,10.06
2023-03-29T07:03:26.702Z,9.95
2023-03-29T07:06:19.819Z,9.44
2023-03-29T07:08:53.068Z,8.96
2023-03-29T07:11:49.178Z,8.98
2023-03-29T07:14:32.568Z,9.28
2023-03-29T07:17:05.033Z,9.36
2023-03-29T07:19:35.940Z,9.52
2023-03-29T07:22:05.172Z,9.51
2023-03-29T07:24:50.425Z,9.56
2023-03-29T07:27:21.586Z,9.63
2023-03-29T07:30:12.938Z,9.62
2023-03-29T07:32:45.068Z,9.52
2023-03-29T07:35:51.090Z,9.39
2023-03-29T07:38:21.660Z,9.12
2023-03-29T07:40:58.340Z,8.82
2023-03-29T07:43:48.558Z,8.96
2023-03-29T07:46:29.912Z,8.85
2023-03-29T07:48:59.283Z,9.01
2023-03-29T07:51:30.820Z,8.94
2023-03-29T07:54:07.225Z,9.18
2023-03-29T07:57:04.328Z,9.12
2023-03-29T07:59:41.681Z,9.15
2023-03-29T08:02:15.241Z,9.08
2023-03-29T08:04:50.777Z,8.97
2023-03-29T08:07:20.680Z,8.93
2023-03-29T08:09:59.076Z,8.87
2023-03-29T08:12:54.654Z,8.87
2023-03-29T08:15:32.975Z,8.86
2023-03-29T08:18:01.974Z,8.73
2023-03-29T08:20:32.335Z,8.53
2023-03-29T08:23:07.394Z,8.39
2023-03-29T08:25:36.816Z,8.22
2023-03-29T08:28:07.752Z,8.25
2023-03-29T08:30:47.111Z,8.41
2023-03-29T08:33:16.769Z,8.04
2023-03-29T08:35:47.174Z,7.83
2023-03-29T08:38:39.502Z,8.27
2023-03-29T08:41:22.239Z,8.22
2023-03-29T08:44:15.232Z,8.32
2023-03-29T08:47:04.949Z,8.25
2023-03-29T08:49:42.396Z,8.38
2023-03-29T08:52:43.009Z,8.21
2023-03-29T08:55:44.116Z,8.33
2023-03-29T08:58:35.964Z,8.23
2023-03-29T09:01:09.481Z,8.26
2023-03-29T09:04:29.773Z,8.25
2023-03-29T09:07:26.579Z,7.81
2023-03-29T09:09:58.685Z,8.07
2023-03-29T09:13:20.374Z,7.71
2023-03-29T09:16:06.884Z,7.87
2023-03-29T09:19:15.946Z,7.92
2023-03-29T09:22:15.969Z,7.43
2023-03-29T09:25:13.522Z,7.82
2023-03-29T09:27:51.249Z,7.54
2023-03-29T09:30:53.127Z,7.79
2023-03-29T09:33:33.873Z,7.15
2023-03-29T09:36:55.032Z,7.57
2023-03-29T09:39:28.906Z,7.46
2023-03-29T09:42:13.468Z,7.01
2023-03-29T09:44:54.686Z,7.16
2023-03-29T09:47:38.709Z,7.41
2023-03-29T09:51:06.317Z,7.45
2023-03-29T09:53:44.648Z,7.36
2023-03-29T09:56:33.882Z,7.28
2023-03-29T09:59:13.325Z,7.10
2023-03-29T10:01:48.632Z,7.17
2023-03-29T10:04:24.226Z,7.16
2023-03-29T10:07:05.289Z,7.08
2023-03-29T10:09:35.167Z,7.06
2023-03-29T10:12:24.413Z,7.06
2023-03-29T10:14:56.105Z,6.83
2023-03-29T10:17:32.991Z,6.80
2023-03-29T10:20:07.420Z,6.75
2023-03-29T10:22:50.054Z,6.72
2023-03-29T10:25:25.333Z,6.80
2023-03-29T10:28:26.233Z,6.84
2023-03-29T10:31:01.502Z,6.65
2023-03-29T10:33:37.685Z,6.73
2023-03-29T10:36:16.590Z,6.77
2023-03-29T10:38:46.429Z,6.48
2023-03-29T10:41:22.551Z,6.56
2023-03-29T10:43:52.950Z,6.52
2023-03-29T10:46:33.791Z,6.46
2023-03-29T10:49:23.100Z,6.43
2023-03-29T10:51:53.713Z,6.39
2023-03-29T10:54:36.777Z,6.37
2023-03-29T10:57:22.778Z,6.27
2023-03-29T11:00:03.650Z,5.97
2023-03-29T11:02:47.678Z,5.97
2023-03-29T11:05:47.478Z,6.09
2023-03-29T11:08:32.147Z,6.09
2023-03-29T11:11:26.428Z,6.01
2023-03-29T11:14:33.178Z,6.04
2023-03-29T11:17:37.743Z,6.05
2023-03-29T11:20:18.431Z,5.88
2023-03-29T11:23:04.730Z,5.77
2023-03-29T11:26:04.935Z,5.73
2023-03-29T11:28:49.628Z,5.74
2023-03-29T11:31:27.973Z,5.76
2023-03-29T11:34:07.025Z,5.88
2023-03-29T11:36:51.501Z,5.86
2023-03-29T11:39:35.843Z,5.61
2023-03-29T11:42:22.129Z,5.61
2023-03-29T11:45:00.668Z,5.63
2023-03-29T11:47:34.245Z,5.50
2023-03-29T11:50:20.602Z,5.52
2023-03-29T11:52:59.838Z,5.38
2023-03-29T11:55:31.568Z,5.44
2023-03-29T11:58:38.215Z,5.41
2023-03-29T12:01:16.113Z,5.34
2023-03-29T12:03:58.267Z,5.28
2023-03-29T12:06:38.221Z,5.17
2023-03-29T12:09:18.753Z,5.18
2023-03-29T12:12:12.203Z,5.16
2023-03-29T12:15:05.281Z,5.08
2023-03-29T12:17:51.331Z,5.06
2023-03-29T12:20:32.437Z,4.99
2023-03-29T12:23:13.065Z,4.94
2023-03-29T12:26:21.994Z,4.82
2023-03-29T12:29:07.611Z,4.92
2023-03-29T12:32:20.807Z,4.87
2023-03-29T12:35:37.160Z,4.79
2023-03-29T12:38:30.529Z,4.70
2023-03-29T12:41:22.617Z,4.68
2023-03-29T12:44:16.431Z,4.66
2023-03-29T12:47:22.239Z,4.64
2023-03-29T12:49:59.442Z,4.68
2023-03-29T12:52:39.775Z,4.64
2023-03-29T12:55:47.408Z,4.56
2023-03-29T12:58:57.790Z,4.47
2023-03-29T13:01:32.825Z,4.24
2023-03-29T13:04:04.929Z,4.27
2023-03-29T13:07:03.841Z,4.37
2023-03-29T13:10:03.343Z,4.39
2023-03-29T13:12:47.432Z,4.14
2023-03-29T13:15:19.213Z,3.85
2023-03-29T13:18:12.376Z,3.97
2023-03-29T13:21:37.502Z,4.19
2023-03-29T13:24:28.707Z,3.38
2023-03-29T13:27:22.786Z,3.79
2023-03-29T13:30:13.743Z,3.83
2023-03-29T13:33:11.589Z,3.81
2023-03-29T13:36:25.203Z,3.90
2023-03-29T13:39:08.644Z,3.70
2023-03-29T13:41:41.744Z,3.81
2023-03-29T13:44:47.514Z,3.74
2023-03-29T13:47:35.019Z,3.69
2023-03-29T13:50:31.048Z,3.51
2023-03-29T13:53:07.924Z,3.54
2023-03-29T13:55:48.296Z,3.71
2023-03-29T13:58:38.371Z,3.71
2023-03-29T14:01:21.725Z,3.61
2023-03-29T14:03:55.423Z,3.69
2023-03-29T14:06:50.771Z,3.68
2023-03-29T14:09:23.164Z,3.51
2023-03-29T14:11:52.906Z,3.48
2023-03-29T14:14:37.182Z,3.70
2023-03-29T14:17:10.850Z,3.77
2023-03-29T14:19:43.348Z,3.53
2023-03-29T14:22:17.572Z,3.31
2023-03-29T14:24:53.940Z,3.53
2023-03-29T14:27:24.447Z,3.35
2023-03-29T14:29:57.749Z,3.29
2023-03-29T14:32:34.866Z,3.54
2023-03-29T14:35:04.200Z,3.78
2023-03-29T14:37:33.385Z,3.80
2023-03-29T14:40:03.479Z,3.49
2023-03-29T14:42:32.842Z,3.38
2023-03-29T14:45:07.756Z,3.41
2023-03-29T14:47:37.713Z,3.37
2023-03-29T14:50:07.993Z,3.36
2023-03-29T14:52:38.850Z,3.54
2023-03-29T14:55:13.457Z,3.61
2023-03-29T14:57:43.825Z,3.66
2023-03-29T15:00:31.020Z,3.56
2023-03-29T15:03:03.325Z,3.41
2023-03-29T15:05:42.499Z,3.76
2023-03-29T15:08:37.164Z,3.77
2023-03-29T15:11:20.249Z,4.17
2023-03-29T15:13:50.969Z,4.26
2023-03-29T15:16:23.895Z,4.21
2023-03-29T15:18:55.075Z,3.91
2023-03-29T15:21:24.814Z,4.39
2023-03-29T15:24:01.529Z,4.38
2023-03-29T15:26:39.884Z,4.41
2023-03-29T15:29:24.338Z,4.38
2023-03-29T15:32:00.549Z,4.33
2023-03-29T15:34:34.292Z,4.33
2023-03-29T15:37:03.638Z,4.13
2023-03-29T15:39:36.366Z,3.94
2023-03-29T15:42:07.338Z,3.87
2023-03-29T15:44:40.219Z,4.13
2023-03-29T15:47:27.626Z,4.69
2023-03-29T15:49:57.057Z,4.71
2023-03-29T15:52:26.113Z,4.34
2023-03-29T15:54:55.204Z,4.17
2023-03-29T15:57:24.742Z,4.46
2023-03-29T16:00:09.550Z,4.30
2023-03-29T16:02:44.847Z,4.25
2023-03-29T16:05:16.088Z,4.44
2023-03-29T16:07:45.451Z,4.71
2023-03-29T16:10:14.509Z,4.75
2023-03-29T16:12:43.571Z,4.59
2023-03-29T16:15:18.856Z,4.87
2023-03-29T16:17:53.942Z,4.67
2023-03-29T16:20:26.327Z,4.80
2023-03-29T16:22:55.928Z,4.69
2023-03-29T16:25:25.446Z,4.87
2023-03-29T16:27:55.257Z,5.00
2023-03-29T16:30:26.402Z,4.93
2023-03-29T16:32:55.431Z,4.97
2023-03-29T16:35:33.927Z,4.82
2023-03-29T16:38:02.988Z,4.82
2023-03-29T16:40:37.010Z,4.99
2023-03-29T16:43:10.466Z,4.92
2023-03-29T16:45:54.137Z,5.30
2023-03-29T16:48:33.360Z,5.42
2023-03-29T16:51:03.106Z,5.33
2023-03-29T16:53:31.924Z,5.28
2023-03-29T16:56:01.689Z,5.58
2023-03-29T16:58:30.845Z,5.71
2023-03-29T17:01:02.382Z,5.98
2023-03-29T17:03:32.125Z,5.98
2023-03-29T17:06:04.416Z,6.14
2023-03-29T17:08:35.833Z,6.42
2023-03-29T17:11:05.005Z,6.61
2023-03-29T17:13:33.846Z,6.73
2023-03-29T17:16:03.505Z,6.80
2023-03-29T17:18:32.674Z,6.98
2023-03-29T17:21:02.526Z,7.33
2023-03-29T17:23:31.686Z,7.44
2023-03-29T17:26:00.845Z,7.54
2023-03-29T17:28:30.088Z,7.70
2023-03-29T17:30:59.487Z,8.00
2023-03-29T17:33:31.961Z,8.23
2023-03-29T17:36:01.433Z,8.42
2023-03-29T17:38:34.920Z,8.45
2023-03-29T17:41:19.285Z,8.54
2023-03-29T17:43:48.813Z,8.91
2023-03-29T17:46:18.810Z,9.08
2023-03-29T17:48:50.833Z,9.08
2023-03-29T17:51:24.002Z,8.93
2023-03-29T17:53:57.409Z,9.10
2023-03-29T17:56:27.421Z,8.70
2023-03-29T17:58:59.732Z,8.44
2023-03-29T18:01:29.548Z,8.58
2023-03-29T18:04:09.408Z,8.91
2023-03-29T18:06:40.143Z,9.02
2023-03-29T18:09:13.301Z,9.28
2023-03-29T18:11:42.397Z,9.30
2023-03-29T18:14:15.413Z,9.57
2023-03-29T18:16:54.208Z,9.64
2023-03-29T18:19:23.088Z,9.62
2023-03-29T18:21:52.067Z,10.17
2023-03-29T18:24:24.617Z,10.48
2023-03-29T18:26:53.798Z,10.49
2023-03-29T18:29:24.659Z,10.55
2023-03-29T18:31:53.616Z,10.64
2023-03-29T18:34:22.576Z,10.83
2023-03-29T18:36:58.831Z,11.18
2023-03-29T18:39:29.262Z,11.45
2023-03-29T18:42:02.438Z,11.52
2023-03-29T18:44:31.492Z,11.57
2023-03-29T18:47:01.915Z,11.55
2023-03-29T18:49:35.581Z,11.91
2023-03-29T18:52:13.136Z,11.98
2023-03-29T18:54:48.409Z,12.01
2023-03-29T18:57:21.878Z,12.25
2023-03-29T18:59:55.833Z,12.22
2023-03-29T19:02:25.194Z,12.44
2023-03-29T19:04:54.185Z,12.51
2023-03-29T19:07:23.316Z,12.98
2023-03-29T19:09:52.857Z,13.01
2023-03-29T19:12:25.429Z,13.20
2023-03-29T19:14:58.074Z,13.28
2023-03-29T19:17:28.692Z,13.65
2023-03-29T19:19:57.606Z,13.67
2023-03-29T19:22:31.636Z,13.57
2023-03-29T19:25:00.876Z,13.61
2023-03-29T19:27:42.540Z,13.54
2023-03-29T19:30:12.034Z,13.72
2023-03-29T19:32:46.473Z,13.62
2023-03-29T19:35:15.543Z,13.71
2023-03-29T19:37:47.553Z,13.88
2023-03-29T19:40:18.827Z,13.88
2023-03-29T19:42:48.684Z,13.89
2023-03-29T19:45:18.206Z,14.01
2023-03-29T19:47:48.594Z,14.06
2023-03-29T19:50:17.613Z,13.83
2023-03-29T19:52:46.730Z,14.36
2023-03-29T19:55:15.803Z,14.19
2023-03-29T19:57:46.610Z,14.10
2023-03-29T20:00:15.939Z,13.54
2023-03-29T20:02:44.770Z,13.51
2023-03-29T20:05:14.741Z,13.74
2023-03-29T20:07:45.867Z,13.77
2023-03-29T20:10:19.729Z,13.74
2023-03-29T20:12:51.779Z,14.09
2023-03-29T20:15:22.922Z,13.87
2023-03-29T20:17:57.041Z,13.89
2023-03-29T20:20:29.565Z,13.82
2023-03-29T20:22:58.941Z,13.59
2023-03-29T20:25:27.964Z,13.60
2023-03-29T20:28:05.302Z,13.73
2023-03-29T20:30:50.767Z,13.38
2023-03-29T20:33:30.029Z,13.56
2023-03-29T20:36:12.118Z,13.78
2023-03-29T20:38:53.348Z,13.75
2023-03-29T20:41:48.738Z,13.45
2023-03-29T20:44:27.101Z,13.73
2023-03-29T20:47:42.677Z,13.85
2023-03-29T20:50:31.557Z,13.73
2023-03-29T20:53:17.696Z,13.74
2023-03-29T20:55:47.230Z,13.86
2023-03-29T20:58:30.768Z,14.08
2023-03-29T21:01:03.374Z,13.64
2023-03-29T21:03:36.708Z,13.60
2023-03-29T21:06:10.591Z,13.45
2023-03-29T21:08:40.814Z,13.69
2023-03-29T21:11:13.977Z,13.83
2023-03-29T21:13:48.115Z,13.83
2023-03-29T21:16:20.027Z,14.12
2023-03-29T21:18:52.466Z,14.16
2023-03-29T21:21:23.441Z,14.32
2023-03-29T21:23:52.671Z,14.47
2023-03-29T21:26:24.770Z,14.68
2023-03-29T21:28:53.841Z,14.78
2023-03-29T21:31:23.245Z,14.82
2023-03-29T21:33:54.884Z,14.93
2023-03-29T21:36:24.827Z,14.88
2023-03-29T21:38:54.138Z,15.17
2023-03-29T21:41:23.176Z,14.81
2023-03-29T21:43:53.704Z,15.52
2023-03-29T21:46:22.761Z,15.63
2023-03-29T21:48:51.742Z,15.71
2023-03-29T21:51:20.724Z,16.35
2023-03-29T21:53:49.533Z,16.68
2023-03-29T21:56:18.513Z,17.01
2023-03-29T21:58:47.369Z,16.98
2023-03-29T22:01:17.915Z,15.99
2023-03-29T22:03:58.794Z,16.57
2023-03-29T22:08:18.689Z,15.79
2023-03-29T22:10:28.529Z,15.99
2023-03-29T22:13:21.652Z,15.94
2023-03-29T22:15:59.754Z,16.02
2023-03-29T22:18:56.078Z,16.08
2023-03-29T22:21:27.583Z,15.86
2023-03-29T22:24:13.080Z,16.42
2023-03-29T22:27:00.638Z,16.27
2023-03-29T22:29:32.942Z,16.12
2023-03-29T22:32:02.214Z,15.87
2023-03-29T22:34:31.407Z,15.75
2023-03-29T22:37:03.450Z,16.56
2023-03-29T22:39:39.279Z,16.44
2023-03-29T22:42:11.441Z,16.51
2023-03-29T22:44:40.402Z,15.90
2023-03-29T22:47:09.260Z,16.46
2023-03-29T22:49:38.200Z,16.75
2023-03-29T22:52:07.420Z,16.56
2023-03-29T22:54:36.312Z,16.24
2023-03-29T22:57:05.317Z,16.68
2023-03-29T22:59:34.292Z,17.41
2023-03-29T23:02:03.348Z,16.76
2023-03-29T23:04:32.367Z,16.75
2023-03-29T23:07:04.364Z,16.21
2023-03-29T23:09:33.728Z,16.32
2023-03-29T23:12:02.632Z,16.99
2023-03-29T23:14:32.062Z,17.36
2023-03-29T23:17:01.384Z,17.12
2023-03-29T23:19:30.258Z,17.39
2023-03-29T23:22:01.783Z,17.68
2023-03-29T23:24:31.572Z,17.61
2023-03-29T23:27:02.154Z,17.97
2023-03-29T23:29:38.620Z,18.30
2023-03-29T23:32:09.483Z,18.14
2023-03-29T23:34:38.342Z,18.39
2023-03-29T23:37:09.392Z,18.97
2023-03-29T23:39:41.232Z,18.65
2023-03-29T23:42:28.773Z,18.52
2023-03-29T23:45:00.250Z,18.46
2023-03-29T23:47:48.600Z,18.37
2023-03-29T23:50:34.733Z,18.76
2023-03-29T23:54:14.278Z,18.79
2023-03-29T23:57:12.966Z,19.29
